Ever Diamond — 3FQS8 — position and weather

sailwx.info

Track history (hours):
 
Tides and Currents Weather Stations Pressure Air Temp Water Temp Dewpoint Dewpoint Depression Visibility Wind Speed Wind Dir Waves Ship Positions

Ever Diamond

Last reported at 2015-May-24 22:25 UTC. Time now 2015-May-24 23:19 UTC.
Position N 39°15' W 076°33'.

Type: Ship (hazmat cat D). MMSI: 354893000.

Date/timePositionNaut miles runAvg speedWind from/ knotsBaromVisibWave heightAir tempDewpointWater temp
2015-May-24 22:25N 39°15' W 076°33'0 0.0
2015-May-24 21:31N 39°15' W 076°33'1 1.4
2015-May-24 20:34N 39°14' W 076°33'2311.3
2015-May-24 18:34N 38°53' W 076°24'5718.3
2015-May-24 15:28N 37°57' W 076°10'5216.8
2015-May-24 12:22N 37°05' W 076°06'1215.2
2015-May-24 11:34N 36°56' W 075°56'1413.8
2015-May-24 10:32N 36°47' W 075°42'2118.9
2015-May-24 09:26N 36°29' W 075°30'  
Track history (hours):
 
Tides and Currents Weather Stations Pressure Air Temp Water Temp Dewpoint Dewpoint Depression Visibility Wind Speed Wind Dir Waves Ship Positions

Ever Diamond

Last reported at 2015-May-24 22:25 UTC. Time now 2015-May-24 23:19 UTC.
Position N 39°15' W 076°33'.

Type: Ship (hazmat cat D). MMSI: 354893000.

Date/timePositionNaut miles runAvg speedWind from/ knotsBaromVisibWave heightAir tempDewpointWater temp
2015-May-24 22:25N 39°15' W 076°33'0 0.0
2015-May-24 21:31N 39°15' W 076°33'1 1.4
2015-May-24 20:34N 39°14' W 076°33'2311.3
2015-May-24 18:34N 38°53' W 076°24'5718.3
2015-May-24 15:28N 37°57' W 076°10'5216.8
2015-May-24 12:22N 37°05' W 076°06'1215.2
2015-May-24 11:34N 36°56' W 075°56'1413.8
2015-May-24 10:32N 36°47' W 075°42'2118.9
2015-May-24 09:26N 36°29' W 075°30'  

Dump ship's entire track history